<?xml version="1.0" encoding="UTF-8" standalone="no" ?>
<gpx xmlns="http://www.topografix.com/GPX/1/1" xmlns:xsi="http://www.w3.org/2001/XMLSchema-instance" xsi:schemaLocation="http://www.topografix.com/GPX/1/1 http://www.topografix.com/GPX/1/1/gpx.xsd" version="1.1" creator="VisuGPX - https://www.visugpx.com">
  <metadata>
    <name>ASLPM marche à Ile D'Elle le 16 Novembre 2015</name>
    <desc><![CDATA[ASLPM marche Ile D'Elle le 16 Novembre 2015
]]></desc>
  </metadata>
  <trk>
    <name><![CDATA[16/11/2015 09:05:11]]></name>
    <trkseg>
      <trkpt lat="46.33085" lon="-0.94378">
        <ele>27</ele>
        <time>2015-11-16T08:05:11Z</time>
      </trkpt>
      <trkpt lat="46.33085" lon="-0.94379">
        <ele>27</ele>
        <time>2015-11-16T08:05:13Z</time>
      </trkpt>
      <trkpt lat="46.33083" lon="-0.94378">
        <ele>27</ele>
        <time>2015-11-16T08:05:15Z</time>
      </trkpt>
      <trkpt lat="46.33084" lon="-0.94377">
        <ele>27</ele>
        <time>2015-11-16T08:05:16Z</time>
      </trkpt>
      <trkpt lat="46.33083" lon="-0.94376">
        <ele>27</ele>
        <time>2015-11-16T08:05:18Z</time>
      </trkpt>
      <trkpt lat="46.33084" lon="-0.94375">
        <ele>27</ele>
        <time>2015-11-16T08:05:19Z</time>
      </trkpt>
      <trkpt lat="46.33087" lon="-0.94371">
        <ele>27</ele>
        <time>2015-11-16T08:05:26Z</time>
      </trkpt>
      <trkpt lat="46.33084" lon="-0.94365">
        <ele>27</ele>
        <time>2015-11-16T08:06:18Z</time>
      </trkpt>
      <trkpt lat="46.33084" lon="-0.94364">
        <ele>27</ele>
        <time>2015-11-16T08:06:19Z</time>
      </trkpt>
      <trkpt lat="46.33082" lon="-0.9435">
        <ele>27</ele>
        <time>2015-11-16T08:06:30Z</time>
      </trkpt>
      <trkpt lat="46.33081" lon="-0.94348">
        <ele>27</ele>
        <time>2015-11-16T08:06:32Z</time>
      </trkpt>
      <trkpt lat="46.33082" lon="-0.94334">
        <ele>27</ele>
        <time>2015-11-16T08:06:42Z</time>
      </trkpt>
      <trkpt lat="46.33085" lon="-0.9433">
        <ele>27</ele>
        <time>2015-11-16T08:06:46Z</time>
      </trkpt>
      <trkpt lat="46.33085" lon="-0.94324">
        <ele>27</ele>
        <time>2015-11-16T08:06:50Z</time>
      </trkpt>
      <trkpt lat="46.33086" lon="-0.94297">
        <ele>27</ele>
        <time>2015-11-16T08:07:04Z</time>
      </trkpt>
      <trkpt lat="46.33085" lon="-0.9427">
        <ele>27</ele>
        <time>2015-11-16T08:07:18Z</time>
      </trkpt>
      <trkpt lat="46.33084" lon="-0.94244">
        <ele>27</ele>
        <time>2015-11-16T08:07:31Z</time>
      </trkpt>
      <trkpt lat="46.33081" lon="-0.94218">
        <ele>27</ele>
        <time>2015-11-16T08:07:44Z</time>
      </trkpt>
      <trkpt lat="46.33078" lon="-0.9419">
        <ele>27</ele>
        <time>2015-11-16T08:07:58Z</time>
      </trkpt>
      <trkpt lat="46.33073" lon="-0.94164">
        <ele>27</ele>
        <time>2015-11-16T08:08:12Z</time>
      </trkpt>
      <trkpt lat="46.33069" lon="-0.94138">
        <ele>27</ele>
        <time>2015-11-16T08:08:25Z</time>
      </trkpt>
      <trkpt lat="46.33065" lon="-0.94111">
        <ele>27</ele>
        <time>2015-11-16T08:08:39Z</time>
      </trkpt>
      <trkpt lat="46.33062" lon="-0.94084">
        <ele>27</ele>
        <time>2015-11-16T08:08:53Z</time>
      </trkpt>
      <trkpt lat="46.33059" lon="-0.94058">
        <ele>27.8</ele>
        <time>2015-11-16T08:09:07Z</time>
      </trkpt>
      <trkpt lat="46.33057" lon="-0.9403">
        <ele>28</ele>
        <time>2015-11-16T08:09:21Z</time>
      </trkpt>
      <trkpt lat="46.33057" lon="-0.94025">
        <ele>28</ele>
        <time>2015-11-16T08:09:24Z</time>
      </trkpt>
      <trkpt lat="46.33057" lon="-0.94014">
        <ele>28</ele>
        <time>2015-11-16T08:09:30Z</time>
      </trkpt>
      <trkpt lat="46.33058" lon="-0.93987">
        <ele>28</ele>
        <time>2015-11-16T08:09:44Z</time>
      </trkpt>
      <trkpt lat="46.33058" lon="-0.93982">
        <ele>28</ele>
        <time>2015-11-16T08:09:47Z</time>
      </trkpt>
      <trkpt lat="46.3306" lon="-0.93973">
        <ele>28</ele>
        <time>2015-11-16T08:09:52Z</time>
      </trkpt>
      <trkpt lat="46.33064" lon="-0.93948">
        <ele>28</ele>
        <time>2015-11-16T08:10:05Z</time>
      </trkpt>
      <trkpt lat="46.33068" lon="-0.93922">
        <ele>27.6</ele>
        <time>2015-11-16T08:10:18Z</time>
      </trkpt>
      <trkpt lat="46.33073" lon="-0.93896">
        <ele>27.1</ele>
        <time>2015-11-16T08:10:32Z</time>
      </trkpt>
      <trkpt lat="46.33079" lon="-0.93873">
        <ele>27</ele>
        <time>2015-11-16T08:10:45Z</time>
      </trkpt>
      <trkpt lat="46.33082" lon="-0.93846">
        <ele>27</ele>
        <time>2015-11-16T08:10:59Z</time>
      </trkpt>
      <trkpt lat="46.33088" lon="-0.9382">
        <ele>26.4</ele>
        <time>2015-11-16T08:11:13Z</time>
      </trkpt>
      <trkpt lat="46.33093" lon="-0.93793">
        <ele>25.7</ele>
        <time>2015-11-16T08:11:27Z</time>
      </trkpt>
      <trkpt lat="46.33098" lon="-0.93767">
        <ele>24.5</ele>
        <time>2015-11-16T08:11:41Z</time>
      </trkpt>
      <trkpt lat="46.33102" lon="-0.9374">
        <ele>23.3</ele>
        <time>2015-11-16T08:11:55Z</time>
      </trkpt>
      <trkpt lat="46.33103" lon="-0.93714">
        <ele>22.5</ele>
        <time>2015-11-16T08:12:08Z</time>
      </trkpt>
      <trkpt lat="46.33103" lon="-0.93687">
        <ele>22</ele>
        <time>2015-11-16T08:12:21Z</time>
      </trkpt>
      <trkpt lat="46.33105" lon="-0.93661">
        <ele>21</ele>
        <time>2015-11-16T08:12:34Z</time>
      </trkpt>
      <trkpt lat="46.33108" lon="-0.93635">
        <ele>20.1</ele>
        <time>2015-11-16T08:12:47Z</time>
      </trkpt>
      <trkpt lat="46.33115" lon="-0.93609">
        <ele>19.8</ele>
        <time>2015-11-16T08:13:00Z</time>
      </trkpt>
      <trkpt lat="46.33122" lon="-0.93584">
        <ele>18.6</ele>
        <time>2015-11-16T08:13:14Z</time>
      </trkpt>
      <trkpt lat="46.33133" lon="-0.93561">
        <ele>18</ele>
        <time>2015-11-16T08:13:28Z</time>
      </trkpt>
      <trkpt lat="46.33144" lon="-0.9354">
        <ele>17.2</ele>
        <time>2015-11-16T08:13:41Z</time>
      </trkpt>
      <trkpt lat="46.33155" lon="-0.9352">
        <ele>16.2</ele>
        <time>2015-11-16T08:13:54Z</time>
      </trkpt>
      <trkpt lat="46.33167" lon="-0.93499">
        <ele>15.9</ele>
        <time>2015-11-16T08:14:07Z</time>
      </trkpt>
      <trkpt lat="46.3318" lon="-0.93478">
        <ele>15.1</ele>
        <time>2015-11-16T08:14:20Z</time>
      </trkpt>
      <trkpt lat="46.33194" lon="-0.9346">
        <ele>14.5</ele>
        <time>2015-11-16T08:14:33Z</time>
      </trkpt>
      <trkpt lat="46.33207" lon="-0.93441">
        <ele>13.9</ele>
        <time>2015-11-16T08:14:46Z</time>
      </trkpt>
      <trkpt lat="46.33221" lon="-0.93423">
        <ele>13.2</ele>
        <time>2015-11-16T08:14:59Z</time>
      </trkpt>
      <trkpt lat="46.33233" lon="-0.93403">
        <ele>12.3</ele>
        <time>2015-11-16T08:15:11Z</time>
      </trkpt>
      <trkpt lat="46.33235" lon="-0.93402">
        <ele>12.2</ele>
        <time>2015-11-16T08:15:13Z</time>
      </trkpt>
      <trkpt lat="46.33244" lon="-0.93396">
        <ele>12.1</ele>
        <time>2015-11-16T08:15:21Z</time>
      </trkpt>
      <trkpt lat="46.33256" lon="-0.93375">
        <ele>11.4</ele>
        <time>2015-11-16T08:15:33Z</time>
      </trkpt>
      <trkpt lat="46.33267" lon="-0.93353">
        <ele>10.7</ele>
        <time>2015-11-16T08:15:46Z</time>
      </trkpt>
      <trkpt lat="46.33275" lon="-0.93327">
        <ele>10</ele>
        <time>2015-11-16T08:15:59Z</time>
      </trkpt>
      <trkpt lat="46.33292" lon="-0.93314">
        <ele>9.5</ele>
        <time>2015-11-16T08:16:13Z</time>
      </trkpt>
      <trkpt lat="46.33309" lon="-0.93305">
        <ele>9</ele>
        <time>2015-11-16T08:16:27Z</time>
      </trkpt>
      <trkpt lat="46.33326" lon="-0.93297">
        <ele>8.8</ele>
        <time>2015-11-16T08:16:40Z</time>
      </trkpt>
      <trkpt lat="46.33343" lon="-0.93304">
        <ele>8.9</ele>
        <time>2015-11-16T08:16:53Z</time>
      </trkpt>
      <trkpt lat="46.33351" lon="-0.93329">
        <ele>9</ele>
        <time>2015-11-16T08:17:07Z</time>
      </trkpt>
      <trkpt lat="46.33358" lon="-0.93355">
        <ele>9</ele>
        <time>2015-11-16T08:17:21Z</time>
      </trkpt>
      <trkpt lat="46.33366" lon="-0.93379">
        <ele>8.7</ele>
        <time>2015-11-16T08:17:34Z</time>
      </trkpt>
      <trkpt lat="46.33374" lon="-0.93402">
        <ele>8.1</ele>
        <time>2015-11-16T08:17:47Z</time>
      </trkpt>
      <trkpt lat="46.3338" lon="-0.93414">
        <ele>7.7</ele>
        <time>2015-11-16T08:17:54Z</time>
      </trkpt>
      <trkpt lat="46.33382" lon="-0.93422">
        <ele>7.5</ele>
        <time>2015-11-16T08:17:59Z</time>
      </trkpt>
      <trkpt lat="46.33393" lon="-0.93445">
        <ele>7</ele>
        <time>2015-11-16T08:18:12Z</time>
      </trkpt>
      <trkpt lat="46.33403" lon="-0.93468">
        <ele>7.4</ele>
        <time>2015-11-16T08:18:25Z</time>
      </trkpt>
      <trkpt lat="46.33414" lon="-0.93489">
        <ele>7.1</ele>
        <time>2015-11-16T08:18:38Z</time>
      </trkpt>
      <trkpt lat="46.33426" lon="-0.93512">
        <ele>6.7</ele>
        <time>2015-11-16T08:18:51Z</time>
      </trkpt>
      <trkpt lat="46.33438" lon="-0.93534">
        <ele>6.2</ele>
        <time>2015-11-16T08:19:04Z</time>
      </trkpt>
      <trkpt lat="46.33451" lon="-0.93554">
        <ele>6</ele>
        <time>2015-11-16T08:19:17Z</time>
      </trkpt>
      <trkpt lat="46.33463" lon="-0.93575">
        <ele>6.2</ele>
        <time>2015-11-16T08:19:30Z</time>
      </trkpt>
      <trkpt lat="46.33474" lon="-0.93596">
        <ele>5.5</ele>
        <time>2015-11-16T08:19:42Z</time>
      </trkpt>
      <trkpt lat="46.33485" lon="-0.93617">
        <ele>5</ele>
        <time>2015-11-16T08:19:54Z</time>
      </trkpt>
      <trkpt lat="46.33497" lon="-0.93639">
        <ele>5</ele>
        <time>2015-11-16T08:20:07Z</time>
      </trkpt>
      <trkpt lat="46.33506" lon="-0.93655">
        <ele>5</ele>
        <time>2015-11-16T08:20:17Z</time>
      </trkpt>
      <trkpt lat="46.33509" lon="-0.93659">
        <ele>5</ele>
        <time>2015-11-16T08:20:21Z</time>
      </trkpt>
      <trkpt lat="46.33516" lon="-0.93685">
        <ele>5</ele>
        <time>2015-11-16T08:20:34Z</time>
      </trkpt>
      <trkpt lat="46.33523" lon="-0.93711">
        <ele>4.5</ele>
        <time>2015-11-16T08:20:47Z</time>
      </trkpt>
      <trkpt lat="46.3353" lon="-0.93735">
        <ele>4</ele>
        <time>2015-11-16T08:20:59Z</time>
      </trkpt>
      <trkpt lat="46.33542" lon="-0.93753">
        <ele>4</ele>
        <time>2015-11-16T08:21:11Z</time>
      </trkpt>
      <trkpt lat="46.3356" lon="-0.93751">
        <ele>4</ele>
        <time>2015-11-16T08:21:23Z</time>
      </trkpt>
      <trkpt lat="46.33579" lon="-0.93754">
        <ele>3.9</ele>
        <time>2015-11-16T08:21:37Z</time>
      </trkpt>
      <trkpt lat="46.33597" lon="-0.93751">
        <ele>3.5</ele>
        <time>2015-11-16T08:21:50Z</time>
      </trkpt>
      <trkpt lat="46.33615" lon="-0.93746">
        <ele>3</ele>
        <time>2015-11-16T08:22:02Z</time>
      </trkpt>
      <trkpt lat="46.33633" lon="-0.9374">
        <ele>3</ele>
        <time>2015-11-16T08:22:15Z</time>
      </trkpt>
      <trkpt lat="46.3365" lon="-0.93732">
        <ele>3</ele>
        <time>2015-11-16T08:22:29Z</time>
      </trkpt>
      <trkpt lat="46.33668" lon="-0.93723">
        <ele>3</ele>
        <time>2015-11-16T08:22:42Z</time>
      </trkpt>
      <trkpt lat="46.33687" lon="-0.93715">
        <ele>3</ele>
        <time>2015-11-16T08:22:55Z</time>
      </trkpt>
      <trkpt lat="46.33705" lon="-0.93706">
        <ele>3</ele>
        <time>2015-11-16T08:23:08Z</time>
      </trkpt>
      <trkpt lat="46.33723" lon="-0.93697">
        <ele>3</ele>
        <time>2015-11-16T08:23:21Z</time>
      </trkpt>
      <trkpt lat="46.33742" lon="-0.93691">
        <ele>3</ele>
        <time>2015-11-16T08:23:34Z</time>
      </trkpt>
      <trkpt lat="46.3376" lon="-0.93686">
        <ele>2.9</ele>
        <time>2015-11-16T08:23:47Z</time>
      </trkpt>
      <trkpt lat="46.33778" lon="-0.93688">
        <ele>2.8</ele>
        <time>2015-11-16T08:23:58Z</time>
      </trkpt>
      <trkpt lat="46.33796" lon="-0.93697">
        <ele>3</ele>
        <time>2015-11-16T08:24:10Z</time>
      </trkpt>
      <trkpt lat="46.33813" lon="-0.93704">
        <ele>3</ele>
        <time>2015-11-16T08:24:22Z</time>
      </trkpt>
      <trkpt lat="46.33831" lon="-0.93706">
        <ele>3</ele>
        <time>2015-11-16T08:24:34Z</time>
      </trkpt>
      <trkpt lat="46.33843" lon="-0.93706">
        <ele>3</ele>
        <time>2015-11-16T08:24:46Z</time>
      </trkpt>
      <trkpt lat="46.33861" lon="-0.93703">
        <ele>3</ele>
        <time>2015-11-16T08:24:57Z</time>
      </trkpt>
      <trkpt lat="46.33878" lon="-0.93696">
        <ele>3</ele>
        <time>2015-11-16T08:25:09Z</time>
      </trkpt>
      <trkpt lat="46.33881" lon="-0.93695">
        <ele>3</ele>
        <time>2015-11-16T08:25:11Z</time>
      </trkpt>
      <trkpt lat="46.33897" lon="-0.93682">
        <ele>3</ele>
        <time>2015-11-16T08:25:24Z</time>
      </trkpt>
      <trkpt lat="46.33911" lon="-0.93665">
        <ele>3</ele>
        <time>2015-11-16T08:25:36Z</time>
      </trkpt>
      <trkpt lat="46.33925" lon="-0.93647">
        <ele>3</ele>
        <time>2015-11-16T08:25:50Z</time>
      </trkpt>
      <trkpt lat="46.3394" lon="-0.93629">
        <ele>3</ele>
        <time>2015-11-16T08:26:03Z</time>
      </trkpt>
      <trkpt lat="46.33947" lon="-0.9362">
        <ele>3</ele>
        <time>2015-11-16T08:26:09Z</time>
      </trkpt>
      <trkpt lat="46.33956" lon="-0.93614">
        <ele>3</ele>
        <time>2015-11-16T08:26:17Z</time>
      </trkpt>
      <trkpt lat="46.33959" lon="-0.93609">
        <ele>3</ele>
        <time>2015-11-16T08:27:00Z</time>
      </trkpt>
      <trkpt lat="46.33965" lon="-0.93596">
        <ele>3</ele>
        <time>2015-11-16T08:27:09Z</time>
      </trkpt>
      <trkpt lat="46.33976" lon="-0.93574">
        <ele>3</ele>
        <time>2015-11-16T08:27:21Z</time>
      </trkpt>
      <trkpt lat="46.33985" lon="-0.93551">
        <ele>3</ele>
        <time>2015-11-16T08:27:33Z</time>
      </trkpt>
      <trkpt lat="46.33996" lon="-0.93528">
        <ele>3</ele>
        <time>2015-11-16T08:27:46Z</time>
      </trkpt>
      <trkpt lat="46.34009" lon="-0.93509">
        <ele>3</ele>
        <time>2015-11-16T08:27:58Z</time>
      </trkpt>
      <trkpt lat="46.34024" lon="-0.93496">
        <ele>3</ele>
        <time>2015-11-16T08:28:13Z</time>
      </trkpt>
      <trkpt lat="46.34025" lon="-0.93497">
        <ele>3</ele>
        <time>2015-11-16T08:28:14Z</time>
      </trkpt>
      <trkpt lat="46.34028" lon="-0.93502">
        <ele>3</ele>
        <time>2015-11-16T08:28:18Z</time>
      </trkpt>
      <trkpt lat="46.34037" lon="-0.93483">
        <ele>3</ele>
        <time>2015-11-16T08:28:35Z</time>
      </trkpt>
      <trkpt lat="46.34051" lon="-0.93464">
        <ele>3</ele>
        <time>2015-11-16T08:28:47Z</time>
      </trkpt>
      <trkpt lat="46.34063" lon="-0.93444">
        <ele>3</ele>
        <time>2015-11-16T08:28:59Z</time>
      </trkpt>
      <trkpt lat="46.34064" lon="-0.93441">
        <ele>3</ele>
        <time>2015-11-16T08:29:01Z</time>
      </trkpt>
      <trkpt lat="46.34075" lon="-0.93418">
        <ele>3</ele>
        <time>2015-11-16T08:29:14Z</time>
      </trkpt>
      <trkpt lat="46.34084" lon="-0.93393">
        <ele>3</ele>
        <time>2015-11-16T08:29:27Z</time>
      </trkpt>
      <trkpt lat="46.34095" lon="-0.93372">
        <ele>3</ele>
        <time>2015-11-16T08:29:38Z</time>
      </trkpt>
      <trkpt lat="46.34097" lon="-0.93369">
        <ele>3</ele>
        <time>2015-11-16T08:29:40Z</time>
      </trkpt>
      <trkpt lat="46.34101" lon="-0.93363">
        <ele>3</ele>
        <time>2015-11-16T08:29:44Z</time>
      </trkpt>
      <trkpt lat="46.34111" lon="-0.9334">
        <ele>3</ele>
        <time>2015-11-16T08:29:56Z</time>
      </trkpt>
      <trkpt lat="46.34122" lon="-0.93319">
        <ele>3</ele>
        <time>2015-11-16T08:30:08Z</time>
      </trkpt>
      <trkpt lat="46.34134" lon="-0.93299">
        <ele>3</ele>
        <time>2015-11-16T08:30:19Z</time>
      </trkpt>
      <trkpt lat="46.34145" lon="-0.93277">
        <ele>3</ele>
        <time>2015-11-16T08:30:31Z</time>
      </trkpt>
      <trkpt lat="46.34156" lon="-0.93254">
        <ele>3</ele>
        <time>2015-11-16T08:30:43Z</time>
      </trkpt>
      <trkpt lat="46.34166" lon="-0.93232">
        <ele>3</ele>
        <time>2015-11-16T08:30:55Z</time>
      </trkpt>
      <trkpt lat="46.34176" lon="-0.93209">
        <ele>3</ele>
        <time>2015-11-16T08:31:07Z</time>
      </trkpt>
      <trkpt lat="46.34186" lon="-0.93187">
        <ele>3</ele>
        <time>2015-11-16T08:31:18Z</time>
      </trkpt>
      <trkpt lat="46.34193" lon="-0.93175">
        <ele>3</ele>
        <time>2015-11-16T08:31:24Z</time>
      </trkpt>
      <trkpt lat="46.34202" lon="-0.93153">
        <ele>3</ele>
        <time>2015-11-16T08:31:35Z</time>
      </trkpt>
      <trkpt lat="46.34212" lon="-0.93131">
        <ele>3</ele>
        <time>2015-11-16T08:31:48Z</time>
      </trkpt>
      <trkpt lat="46.34213" lon="-0.93129">
        <ele>3</ele>
        <time>2015-11-16T08:31:49Z</time>
      </trkpt>
      <trkpt lat="46.34222" lon="-0.93119">
        <ele>3</ele>
        <time>2015-11-16T08:33:29Z</time>
      </trkpt>
      <trkpt lat="46.34224" lon="-0.93124">
        <ele>3</ele>
        <time>2015-11-16T08:35:41Z</time>
      </trkpt>
      <trkpt lat="46.34239" lon="-0.93109">
        <ele>3</ele>
        <time>2015-11-16T08:35:57Z</time>
      </trkpt>
      <trkpt lat="46.34254" lon="-0.93093">
        <ele>3</ele>
        <time>2015-11-16T08:36:12Z</time>
      </trkpt>
      <trkpt lat="46.34271" lon="-0.93081">
        <ele>3</ele>
        <time>2015-11-16T08:36:25Z</time>
      </trkpt>
      <trkpt lat="46.34287" lon="-0.93068">
        <ele>3.2</ele>
        <time>2015-11-16T08:36:38Z</time>
      </trkpt>
      <trkpt lat="46.34303" lon="-0.93053">
        <ele>3</ele>
        <time>2015-11-16T08:36:52Z</time>
      </trkpt>
      <trkpt lat="46.34313" lon="-0.93042">
        <ele>2.9</ele>
        <time>2015-11-16T08:37:02Z</time>
      </trkpt>
      <trkpt lat="46.34318" lon="-0.93038">
        <ele>2.8</ele>
        <time>2015-11-16T08:37:06Z</time>
      </trkpt>
      <trkpt lat="46.34331" lon="-0.93019">
        <ele>3</ele>
        <time>2015-11-16T08:37:18Z</time>
      </trkpt>
      <trkpt lat="46.34343" lon="-0.92999">
        <ele>2.6</ele>
        <time>2015-11-16T08:37:31Z</time>
      </trkpt>
      <trkpt lat="46.34353" lon="-0.92977">
        <ele>2.6</ele>
        <time>2015-11-16T08:37:44Z</time>
      </trkpt>
      <trkpt lat="46.34361" lon="-0.92952">
        <ele>3</ele>
        <time>2015-11-16T08:37:57Z</time>
      </trkpt>
      <trkpt lat="46.3437" lon="-0.9293">
        <ele>2.3</ele>
        <time>2015-11-16T08:38:12Z</time>
      </trkpt>
      <trkpt lat="46.34385" lon="-0.92913">
        <ele>2</ele>
        <time>2015-11-16T08:38:24Z</time>
      </trkpt>
      <trkpt lat="46.34398" lon="-0.92895">
        <ele>2</ele>
        <time>2015-11-16T08:38:36Z</time>
      </trkpt>
      <trkpt lat="46.34405" lon="-0.92869">
        <ele>2.4</ele>
        <time>2015-11-16T08:38:49Z</time>
      </trkpt>
      <trkpt lat="46.34406" lon="-0.92842">
        <ele>2.9</ele>
        <time>2015-11-16T08:39:02Z</time>
      </trkpt>
      <trkpt lat="46.34408" lon="-0.92813">
        <ele>2.5</ele>
        <time>2015-11-16T08:39:14Z</time>
      </trkpt>
      <trkpt lat="46.34411" lon="-0.92787">
        <ele>2.6</ele>
        <time>2015-11-16T08:39:24Z</time>
      </trkpt>
      <trkpt lat="46.34416" lon="-0.92762">
        <ele>3</ele>
        <time>2015-11-16T08:39:36Z</time>
      </trkpt>
      <trkpt lat="46.3442" lon="-0.92736">
        <ele>2.9</ele>
        <time>2015-11-16T08:39:48Z</time>
      </trkpt>
      <trkpt lat="46.34422" lon="-0.92732">
        <ele>2.8</ele>
        <time>2015-11-16T08:39:50Z</time>
      </trkpt>
      <trkpt lat="46.34423" lon="-0.92724">
        <ele>2.8</ele>
        <time>2015-11-16T08:39:54Z</time>
      </trkpt>
      <trkpt lat="46.34427" lon="-0.92697">
        <ele>2.6</ele>
        <time>2015-11-16T08:40:06Z</time>
      </trkpt>
      <trkpt lat="46.34428" lon="-0.9267">
        <ele>2.1</ele>
        <time>2015-11-16T08:40:18Z</time>
      </trkpt>
      <trkpt lat="46.34431" lon="-0.92644">
        <ele>2</ele>
        <time>2015-11-16T08:40:30Z</time>
      </trkpt>
      <trkpt lat="46.34433" lon="-0.92616">
        <ele>2.3</ele>
        <time>2015-11-16T08:40:42Z</time>
      </trkpt>
      <trkpt lat="46.34432" lon="-0.92589">
        <ele>2.4</ele>
        <time>2015-11-16T08:40:55Z</time>
      </trkpt>
      <trkpt lat="46.34433" lon="-0.92562">
        <ele>2.4</ele>
        <time>2015-11-16T08:41:07Z</time>
      </trkpt>
      <trkpt lat="46.34436" lon="-0.92536">
        <ele>2.3</ele>
        <time>2015-11-16T08:41:19Z</time>
      </trkpt>
      <trkpt lat="46.34436" lon="-0.92524">
        <ele>2.4</ele>
        <time>2015-11-16T08:41:25Z</time>
      </trkpt>
      <trkpt lat="46.34438" lon="-0.92513">
        <ele>2.6</ele>
        <time>2015-11-16T08:41:30Z</time>
      </trkpt>
      <trkpt lat="46.34446" lon="-0.92488">
        <ele>3</ele>
        <time>2015-11-16T08:41:42Z</time>
      </trkpt>
      <trkpt lat="46.34455" lon="-0.92465">
        <ele>2.8</ele>
        <time>2015-11-16T08:41:53Z</time>
      </trkpt>
      <trkpt lat="46.34467" lon="-0.92444">
        <ele>2.8</ele>
        <time>2015-11-16T08:42:05Z</time>
      </trkpt>
      <trkpt lat="46.3448" lon="-0.92424">
        <ele>2.5</ele>
        <time>2015-11-16T08:42:18Z</time>
      </trkpt>
      <trkpt lat="46.34495" lon="-0.92408">
        <ele>2.6</ele>
        <time>2015-11-16T08:42:29Z</time>
      </trkpt>
      <trkpt lat="46.34512" lon="-0.92394">
        <ele>2.1</ele>
        <time>2015-11-16T08:42:41Z</time>
      </trkpt>
      <trkpt lat="46.34523" lon="-0.92374">
        <ele>2.5</ele>
        <time>2015-11-16T08:42:52Z</time>
      </trkpt>
      <trkpt lat="46.34531" lon="-0.92349">
        <ele>2.9</ele>
        <time>2015-11-16T08:43:04Z</time>
      </trkpt>
      <trkpt lat="46.34535" lon="-0.92324">
        <ele>2.7</ele>
        <time>2015-11-16T08:43:16Z</time>
      </trkpt>
      <trkpt lat="46.34537" lon="-0.92298">
        <ele>2.7</ele>
        <time>2015-11-16T08:43:27Z</time>
      </trkpt>
      <trkpt lat="46.34542" lon="-0.92272">
        <ele>2.5</ele>
        <time>2015-11-16T08:43:38Z</time>
      </trkpt>
      <trkpt lat="46.34544" lon="-0.92246">
        <ele>2.4</ele>
        <time>2015-11-16T08:43:49Z</time>
      </trkpt>
      <trkpt lat="46.34545" lon="-0.92219">
        <ele>2.4</ele>
        <time>2015-11-16T08:44:01Z</time>
      </trkpt>
      <trkpt lat="46.3455" lon="-0.92194">
        <ele>2.2</ele>
        <time>2015-11-16T08:44:12Z</time>
      </trkpt>
      <trkpt lat="46.3456" lon="-0.92172">
        <ele>2</ele>
        <time>2015-11-16T08:44:23Z</time>
      </trkpt>
      <trkpt lat="46.34574" lon="-0.92154">
        <ele>2.4</ele>
        <time>2015-11-16T08:44:36Z</time>
      </trkpt>
      <trkpt lat="46.34588" lon="-0.92137">
        <ele>3</ele>
        <time>2015-11-16T08:44:48Z</time>
      </trkpt>
      <trkpt lat="46.34599" lon="-0.92116">
        <ele>3</ele>
        <time>2015-11-16T08:45:00Z</time>
      </trkpt>
      <trkpt lat="46.34605" lon="-0.92097">
        <ele>3</ele>
        <time>2015-11-16T08:45:10Z</time>
      </trkpt>
      <trkpt lat="46.34608" lon="-0.92088">
        <ele>3</ele>
        <time>2015-11-16T08:45:15Z</time>
      </trkpt>
      <trkpt lat="46.34616" lon="-0.92063">
        <ele>3</ele>
        <time>2015-11-16T08:45:28Z</time>
      </trkpt>
      <trkpt lat="46.34625" lon="-0.92038">
        <ele>3</ele>
        <time>2015-11-16T08:45:40Z</time>
      </trkpt>
      <trkpt lat="46.34631" lon="-0.92012">
        <ele>3</ele>
        <time>2015-11-16T08:45:52Z</time>
      </trkpt>
      <trkpt lat="46.34638" lon="-0.91988">
        <ele>3</ele>
        <time>2015-11-16T08:46:04Z</time>
      </trkpt>
      <trkpt lat="46.34645" lon="-0.91961">
        <ele>2.8</ele>
        <time>2015-11-16T08:46:16Z</time>
      </trkpt>
      <trkpt lat="46.34655" lon="-0.91939">
        <ele>2.5</ele>
        <time>2015-11-16T08:46:28Z</time>
      </trkpt>
      <trkpt lat="46.3467" lon="-0.91924">
        <ele>2.8</ele>
        <time>2015-11-16T08:46:40Z</time>
      </trkpt>
      <trkpt lat="46.34687" lon="-0.91909">
        <ele>3</ele>
        <time>2015-11-16T08:46:53Z</time>
      </trkpt>
      <trkpt lat="46.34705" lon="-0.91912">
        <ele>3</ele>
        <time>2015-11-16T08:47:06Z</time>
      </trkpt>
      <trkpt lat="46.34716" lon="-0.91934">
        <ele>2.9</ele>
        <time>2015-11-16T08:47:18Z</time>
      </trkpt>
      <trkpt lat="46.34726" lon="-0.91957">
        <ele>2.6</ele>
        <time>2015-11-16T08:47:30Z</time>
      </trkpt>
      <trkpt lat="46.34736" lon="-0.9198">
        <ele>2.7</ele>
        <time>2015-11-16T08:47:42Z</time>
      </trkpt>
      <trkpt lat="46.34747" lon="-0.92004">
        <ele>3</ele>
        <time>2015-11-16T08:47:54Z</time>
      </trkpt>
      <trkpt lat="46.34756" lon="-0.92027">
        <ele>3</ele>
        <time>2015-11-16T08:48:05Z</time>
      </trkpt>
      <trkpt lat="46.34766" lon="-0.9205">
        <ele>2.6</ele>
        <time>2015-11-16T08:48:16Z</time>
      </trkpt>
      <trkpt lat="46.34775" lon="-0.92072">
        <ele>3</ele>
        <time>2015-11-16T08:48:26Z</time>
      </trkpt>
      <trkpt lat="46.34783" lon="-0.92097">
        <ele>2.4</ele>
        <time>2015-11-16T08:48:37Z</time>
      </trkpt>
      <trkpt lat="46.3479" lon="-0.92122">
        <ele>2</ele>
        <time>2015-11-16T08:48:48Z</time>
      </trkpt>
      <trkpt lat="46.34797" lon="-0.92147">
        <ele>2</ele>
        <time>2015-11-16T08:48:59Z</time>
      </trkpt>
      <trkpt lat="46.34804" lon="-0.92171">
        <ele>2</ele>
        <time>2015-11-16T08:49:10Z</time>
      </trkpt>
      <trkpt lat="46.34806" lon="-0.92179">
        <ele>2</ele>
        <time>2015-11-16T08:49:14Z</time>
      </trkpt>
      <trkpt lat="46.34807" lon="-0.92189">
        <ele>2</ele>
        <time>2015-11-16T08:49:19Z</time>
      </trkpt>
      <trkpt lat="46.34815" lon="-0.92214">
        <ele>2</ele>
        <time>2015-11-16T08:49:31Z</time>
      </trkpt>
      <trkpt lat="46.34822" lon="-0.92239">
        <ele>2</ele>
        <time>2015-11-16T08:49:43Z</time>
      </trkpt>
      <trkpt lat="46.34828" lon="-0.92265">
        <ele>2</ele>
        <time>2015-11-16T08:49:55Z</time>
      </trkpt>
      <trkpt lat="46.34834" lon="-0.92292">
        <ele>2.5</ele>
        <time>2015-11-16T08:50:07Z</time>
      </trkpt>
      <trkpt lat="46.34833" lon="-0.9232">
        <ele>3</ele>
        <time>2015-11-16T08:50:18Z</time>
      </trkpt>
      <trkpt lat="46.34826" lon="-0.92346">
        <ele>2.7</ele>
        <time>2015-11-16T08:50:30Z</time>
      </trkpt>
      <trkpt lat="46.34816" lon="-0.9237">
        <ele>2.7</ele>
        <time>2015-11-16T08:50:42Z</time>
      </trkpt>
      <trkpt lat="46.34808" lon="-0.92394">
        <ele>3</ele>
        <time>2015-11-16T08:50:53Z</time>
      </trkpt>
      <trkpt lat="46.34808" lon="-0.9242">
        <ele>2.8</ele>
        <time>2015-11-16T08:51:04Z</time>
      </trkpt>
      <trkpt lat="46.34808" lon="-0.92447">
        <ele>2.1</ele>
        <time>2015-11-16T08:51:16Z</time>
      </trkpt>
      <trkpt lat="46.3481" lon="-0.92463">
        <ele>2.6</ele>
        <time>2015-11-16T08:51:24Z</time>
      </trkpt>
      <trkpt lat="46.34809" lon="-0.9249">
        <ele>2.9</ele>
        <time>2015-11-16T08:51:35Z</time>
      </trkpt>
      <trkpt lat="46.34809" lon="-0.92518">
        <ele>2.9</ele>
        <time>2015-11-16T08:51:47Z</time>
      </trkpt>
      <trkpt lat="46.3481" lon="-0.92545">
        <ele>2.8</ele>
        <time>2015-11-16T08:51:59Z</time>
      </trkpt>
      <trkpt lat="46.34811" lon="-0.92572">
        <ele>2.8</ele>
        <time>2015-11-16T08:52:11Z</time>
      </trkpt>
      <trkpt lat="46.34803" lon="-0.92595">
        <ele>3</ele>
        <time>2015-11-16T08:52:21Z</time>
      </trkpt>
      <trkpt lat="46.34788" lon="-0.92611">
        <ele>3</ele>
        <time>2015-11-16T08:52:32Z</time>
      </trkpt>
      <trkpt lat="46.34771" lon="-0.92623">
        <ele>3</ele>
        <time>2015-11-16T08:52:44Z</time>
      </trkpt>
      <trkpt lat="46.34754" lon="-0.92633">
        <ele>3</ele>
        <time>2015-11-16T08:52:55Z</time>
      </trkpt>
      <trkpt lat="46.34736" lon="-0.92642">
        <ele>2.5</ele>
        <time>2015-11-16T08:53:07Z</time>
      </trkpt>
      <trkpt lat="46.34717" lon="-0.92647">
        <ele>2.3</ele>
        <time>2015-11-16T08:53:19Z</time>
      </trkpt>
      <trkpt lat="46.347" lon="-0.92652">
        <ele>2.5</ele>
        <time>2015-11-16T08:53:30Z</time>
      </trkpt>
      <trkpt lat="46.34681" lon="-0.92656">
        <ele>2.6</ele>
        <time>2015-11-16T08:53:42Z</time>
      </trkpt>
      <trkpt lat="46.34663" lon="-0.9266">
        <ele>2.7</ele>
        <time>2015-11-16T08:53:54Z</time>
      </trkpt>
      <trkpt lat="46.34649" lon="-0.92676">
        <ele>2.7</ele>
        <time>2015-11-16T08:54:06Z</time>
      </trkpt>
      <trkpt lat="46.3464" lon="-0.92698">
        <ele>3</ele>
        <time>2015-11-16T08:54:17Z</time>
      </trkpt>
      <trkpt lat="46.34634" lon="-0.92725">
        <ele>2.8</ele>
        <time>2015-11-16T08:54:29Z</time>
      </trkpt>
      <trkpt lat="46.34634" lon="-0.92751">
        <ele>2.8</ele>
        <time>2015-11-16T08:54:40Z</time>
      </trkpt>
      <trkpt lat="46.34635" lon="-0.9277">
        <ele>2.9</ele>
        <time>2015-11-16T08:54:48Z</time>
      </trkpt>
      <trkpt lat="46.34635" lon="-0.9278">
        <ele>2.9</ele>
        <time>2015-11-16T08:54:52Z</time>
      </trkpt>
      <trkpt lat="46.34627" lon="-0.92803">
        <ele>2.6</ele>
        <time>2015-11-16T08:55:02Z</time>
      </trkpt>
      <trkpt lat="46.34613" lon="-0.92821">
        <ele>2.6</ele>
        <time>2015-11-16T08:55:14Z</time>
      </trkpt>
      <trkpt lat="46.34596" lon="-0.92829">
        <ele>2.4</ele>
        <time>2015-11-16T08:55:26Z</time>
      </trkpt>
      <trkpt lat="46.34591" lon="-0.92838">
        <ele>2.4</ele>
        <time>2015-11-16T08:55:31Z</time>
      </trkpt>
      <trkpt lat="46.34588" lon="-0.92847">
        <ele>2.6</ele>
        <time>2015-11-16T08:55:36Z</time>
      </trkpt>
      <trkpt lat="46.34577" lon="-0.92871">
        <ele>2.8</ele>
        <time>2015-11-16T08:55:47Z</time>
      </trkpt>
      <trkpt lat="46.34566" lon="-0.92893">
        <ele>2.5</ele>
        <time>2015-11-16T08:55:59Z</time>
      </trkpt>
      <trkpt lat="46.34555" lon="-0.92915">
        <ele>2.9</ele>
        <time>2015-11-16T08:56:11Z</time>
      </trkpt>
      <trkpt lat="46.34542" lon="-0.92936">
        <ele>2.5</ele>
        <time>2015-11-16T08:56:22Z</time>
      </trkpt>
      <trkpt lat="46.34529" lon="-0.92956">
        <ele>2.5</ele>
        <time>2015-11-16T08:56:34Z</time>
      </trkpt>
      <trkpt lat="46.34519" lon="-0.92973">
        <ele>2.7</ele>
        <time>2015-11-16T08:56:44Z</time>
      </trkpt>
      <trkpt lat="46.34512" lon="-0.92984">
        <ele>2.7</ele>
        <time>2015-11-16T08:56:51Z</time>
      </trkpt>
      <trkpt lat="46.34499" lon="-0.93005">
        <ele>3</ele>
        <time>2015-11-16T08:57:02Z</time>
      </trkpt>
      <trkpt lat="46.34487" lon="-0.93024">
        <ele>2.5</ele>
        <time>2015-11-16T08:57:13Z</time>
      </trkpt>
      <trkpt lat="46.34475" lon="-0.93043">
        <ele>2.6</ele>
        <time>2015-11-16T08:57:25Z</time>
      </trkpt>
      <trkpt lat="46.3446" lon="-0.93061">
        <ele>2.7</ele>
        <time>2015-11-16T08:57:37Z</time>
      </trkpt>
      <trkpt lat="46.34446" lon="-0.93077">
        <ele>2.8</ele>
        <time>2015-11-16T08:57:50Z</time>
      </trkpt>
      <trkpt lat="46.34429" lon="-0.93091">
        <ele>2.6</ele>
        <time>2015-11-16T08:58:02Z</time>
      </trkpt>
      <trkpt lat="46.34413" lon="-0.93107">
        <ele>2.7</ele>
        <time>2015-11-16T08:58:13Z</time>
      </trkpt>
      <trkpt lat="46.34397" lon="-0.93122">
        <ele>2.6</ele>
        <time>2015-11-16T08:58:26Z</time>
      </trkpt>
      <trkpt lat="46.34394" lon="-0.93128">
        <ele>2.7</ele>
        <time>2015-11-16T08:58:31Z</time>
      </trkpt>
      <trkpt lat="46.34384" lon="-0.93139">
        <ele>2.8</ele>
        <time>2015-11-16T08:58:39Z</time>
      </trkpt>
      <trkpt lat="46.34368" lon="-0.93155">
        <ele>2.7</ele>
        <time>2015-11-16T08:58:51Z</time>
      </trkpt>
      <trkpt lat="46.34352" lon="-0.93169">
        <ele>3</ele>
        <time>2015-11-16T08:59:01Z</time>
      </trkpt>
      <trkpt lat="46.34335" lon="-0.9318">
        <ele>3</ele>
        <time>2015-11-16T08:59:12Z</time>
      </trkpt>
      <trkpt lat="46.34317" lon="-0.9318">
        <ele>3</ele>
        <time>2015-11-16T08:59:24Z</time>
      </trkpt>
      <trkpt lat="46.34299" lon="-0.93174">
        <ele>3</ele>
        <time>2015-11-16T08:59:35Z</time>
      </trkpt>
      <trkpt lat="46.34282" lon="-0.93164">
        <ele>3</ele>
        <time>2015-11-16T08:59:47Z</time>
      </trkpt>
      <trkpt lat="46.34265" lon="-0.93153">
        <ele>3</ele>
        <time>2015-11-16T08:59:59Z</time>
      </trkpt>
      <trkpt lat="46.34247" lon="-0.93142">
        <ele>3</ele>
        <time>2015-11-16T09:00:14Z</time>
      </trkpt>
      <trkpt lat="46.34232" lon="-0.93129">
        <ele>3</ele>
        <time>2015-11-16T09:00:31Z</time>
      </trkpt>
      <trkpt lat="46.34226" lon="-0.93127">
        <ele>3</ele>
        <time>2015-11-16T09:00:41Z</time>
      </trkpt>
      <trkpt lat="46.34223" lon="-0.93135">
        <ele>3</ele>
        <time>2015-11-16T09:00:50Z</time>
      </trkpt>
      <trkpt lat="46.34225" lon="-0.9314">
        <ele>3</ele>
        <time>2015-11-16T09:00:55Z</time>
      </trkpt>
      <trkpt lat="46.3423" lon="-0.9314">
        <ele>3</ele>
        <time>2015-11-16T09:01:23Z</time>
      </trkpt>
      <trkpt lat="46.34223" lon="-0.93127">
        <ele>3</ele>
        <time>2015-11-16T09:02:16Z</time>
      </trkpt>
      <trkpt lat="46.34222" lon="-0.93123">
        <ele>3</ele>
        <time>2015-11-16T09:04:07Z</time>
      </trkpt>
      <trkpt lat="46.3422" lon="-0.93124">
        <ele>3</ele>
        <time>2015-11-16T09:06:18Z</time>
      </trkpt>
      <trkpt lat="46.34218" lon="-0.93126">
        <ele>3</ele>
        <time>2015-11-16T09:10:36Z</time>
      </trkpt>
      <trkpt lat="46.34207" lon="-0.93148">
        <ele>3</ele>
        <time>2015-11-16T09:10:57Z</time>
      </trkpt>
      <trkpt lat="46.34203" lon="-0.93154">
        <ele>3</ele>
        <time>2015-11-16T09:11:02Z</time>
      </trkpt>
      <trkpt lat="46.34199" lon="-0.93167">
        <ele>3</ele>
        <time>2015-11-16T09:11:11Z</time>
      </trkpt>
      <trkpt lat="46.34196" lon="-0.93172">
        <ele>3</ele>
        <time>2015-11-16T09:11:15Z</time>
      </trkpt>
      <trkpt lat="46.34186" lon="-0.93195">
        <ele>3</ele>
        <time>2015-11-16T09:11:30Z</time>
      </trkpt>
      <trkpt lat="46.34177" lon="-0.93219">
        <ele>3</ele>
        <time>2015-11-16T09:11:45Z</time>
      </trkpt>
      <trkpt lat="46.34168" lon="-0.93243">
        <ele>3</ele>
        <time>2015-11-16T09:11:58Z</time>
      </trkpt>
      <trkpt lat="46.34159" lon="-0.93267">
        <ele>3</ele>
        <time>2015-11-16T09:12:12Z</time>
      </trkpt>
      <trkpt lat="46.34148" lon="-0.93288">
        <ele>3</ele>
        <time>2015-11-16T09:12:24Z</time>
      </trkpt>
      <trkpt lat="46.34136" lon="-0.9331">
        <ele>3</ele>
        <time>2015-11-16T09:12:36Z</time>
      </trkpt>
      <trkpt lat="46.34125" lon="-0.93331">
        <ele>3</ele>
        <time>2015-11-16T09:12:49Z</time>
      </trkpt>
      <trkpt lat="46.34113" lon="-0.93353">
        <ele>3</ele>
        <time>2015-11-16T09:13:03Z</time>
      </trkpt>
      <trkpt lat="46.34102" lon="-0.93373">
        <ele>3</ele>
        <time>2015-11-16T09:13:16Z</time>
      </trkpt>
      <trkpt lat="46.34088" lon="-0.93393">
        <ele>3</ele>
        <time>2015-11-16T09:13:29Z</time>
      </trkpt>
      <trkpt lat="46.34076" lon="-0.93415">
        <ele>3</ele>
        <time>2015-11-16T09:13:42Z</time>
      </trkpt>
      <trkpt lat="46.34065" lon="-0.93436">
        <ele>3</ele>
        <time>2015-11-16T09:13:55Z</time>
      </trkpt>
      <trkpt lat="46.34054" lon="-0.93456">
        <ele>3</ele>
        <time>2015-11-16T09:14:07Z</time>
      </trkpt>
      <trkpt lat="46.34041" lon="-0.93474">
        <ele>3</ele>
        <time>2015-11-16T09:14:19Z</time>
      </trkpt>
      <trkpt lat="46.34026" lon="-0.9349">
        <ele>3</ele>
        <time>2015-11-16T09:14:32Z</time>
      </trkpt>
      <trkpt lat="46.34011" lon="-0.93507">
        <ele>3</ele>
        <time>2015-11-16T09:14:45Z</time>
      </trkpt>
      <trkpt lat="46.33997" lon="-0.93526">
        <ele>3</ele>
        <time>2015-11-16T09:14:58Z</time>
      </trkpt>
      <trkpt lat="46.33985" lon="-0.93547">
        <ele>3</ele>
        <time>2015-11-16T09:15:10Z</time>
      </trkpt>
      <trkpt lat="46.33977" lon="-0.9357">
        <ele>3</ele>
        <time>2015-11-16T09:15:22Z</time>
      </trkpt>
      <trkpt lat="46.33968" lon="-0.93593">
        <ele>3</ele>
        <time>2015-11-16T09:15:34Z</time>
      </trkpt>
      <trkpt lat="46.33956" lon="-0.93614">
        <ele>3</ele>
        <time>2015-11-16T09:15:46Z</time>
      </trkpt>
      <trkpt lat="46.33942" lon="-0.93633">
        <ele>3</ele>
        <time>2015-11-16T09:15:59Z</time>
      </trkpt>
      <trkpt lat="46.33928" lon="-0.9365">
        <ele>3</ele>
        <time>2015-11-16T09:16:11Z</time>
      </trkpt>
      <trkpt lat="46.33912" lon="-0.93665">
        <ele>3</ele>
        <time>2015-11-16T09:16:24Z</time>
      </trkpt>
      <trkpt lat="46.33898" lon="-0.93681">
        <ele>3</ele>
        <time>2015-11-16T09:16:36Z</time>
      </trkpt>
      <trkpt lat="46.33882" lon="-0.93695">
        <ele>3</ele>
        <time>2015-11-16T09:16:48Z</time>
      </trkpt>
      <trkpt lat="46.33864" lon="-0.937">
        <ele>3</ele>
        <time>2015-11-16T09:17:00Z</time>
      </trkpt>
      <trkpt lat="46.33845" lon="-0.937">
        <ele>3</ele>
        <time>2015-11-16T09:17:12Z</time>
      </trkpt>
      <trkpt lat="46.33826" lon="-0.93701">
        <ele>3</ele>
        <time>2015-11-16T09:17:24Z</time>
      </trkpt>
      <trkpt lat="46.33808" lon="-0.937">
        <ele>3</ele>
        <time>2015-11-16T09:17:36Z</time>
      </trkpt>
      <trkpt lat="46.3379" lon="-0.93693">
        <ele>3</ele>
        <time>2015-11-16T09:17:48Z</time>
      </trkpt>
      <trkpt lat="46.33773" lon="-0.93684">
        <ele>2.7</ele>
        <time>2015-11-16T09:18:02Z</time>
      </trkpt>
      <trkpt lat="46.33755" lon="-0.93686">
        <ele>2.9</ele>
        <time>2015-11-16T09:18:15Z</time>
      </trkpt>
      <trkpt lat="46.33737" lon="-0.93693">
        <ele>3</ele>
        <time>2015-11-16T09:18:27Z</time>
      </trkpt>
      <trkpt lat="46.33719" lon="-0.93699">
        <ele>3</ele>
        <time>2015-11-16T09:18:38Z</time>
      </trkpt>
      <trkpt lat="46.33701" lon="-0.93705">
        <ele>3</ele>
        <time>2015-11-16T09:18:50Z</time>
      </trkpt>
      <trkpt lat="46.33683" lon="-0.93712">
        <ele>3</ele>
        <time>2015-11-16T09:19:01Z</time>
      </trkpt>
      <trkpt lat="46.33666" lon="-0.9372">
        <ele>3</ele>
        <time>2015-11-16T09:19:13Z</time>
      </trkpt>
      <trkpt lat="46.33648" lon="-0.93728">
        <ele>3</ele>
        <time>2015-11-16T09:19:25Z</time>
      </trkpt>
      <trkpt lat="46.3363" lon="-0.93738">
        <ele>3</ele>
        <time>2015-11-16T09:19:37Z</time>
      </trkpt>
      <trkpt lat="46.33612" lon="-0.93746">
        <ele>3</ele>
        <time>2015-11-16T09:19:49Z</time>
      </trkpt>
      <trkpt lat="46.33593" lon="-0.9375">
        <ele>3.6</ele>
        <time>2015-11-16T09:20:01Z</time>
      </trkpt>
      <trkpt lat="46.33575" lon="-0.9375">
        <ele>4</ele>
        <time>2015-11-16T09:20:12Z</time>
      </trkpt>
      <trkpt lat="46.33557" lon="-0.9375">
        <ele>4</ele>
        <time>2015-11-16T09:20:24Z</time>
      </trkpt>
      <trkpt lat="46.33539" lon="-0.9375">
        <ele>4</ele>
        <time>2015-11-16T09:20:37Z</time>
      </trkpt>
      <trkpt lat="46.33538" lon="-0.9375">
        <ele>4</ele>
        <time>2015-11-16T09:20:38Z</time>
      </trkpt>
      <trkpt lat="46.33527" lon="-0.93728">
        <ele>4</ele>
        <time>2015-11-16T09:20:50Z</time>
      </trkpt>
      <trkpt lat="46.33524" lon="-0.93713">
        <ele>4.4</ele>
        <time>2015-11-16T09:20:58Z</time>
      </trkpt>
      <trkpt lat="46.33516" lon="-0.93688">
        <ele>5</ele>
        <time>2015-11-16T09:21:11Z</time>
      </trkpt>
      <trkpt lat="46.33516" lon="-0.93686">
        <ele>5</ele>
        <time>2015-11-16T09:21:12Z</time>
      </trkpt>
      <trkpt lat="46.33514" lon="-0.93678">
        <ele>5</ele>
        <time>2015-11-16T09:21:16Z</time>
      </trkpt>
      <trkpt lat="46.33504" lon="-0.93654">
        <ele>5</ele>
        <time>2015-11-16T09:21:28Z</time>
      </trkpt>
      <trkpt lat="46.33493" lon="-0.93632">
        <ele>5</ele>
        <time>2015-11-16T09:21:39Z</time>
      </trkpt>
      <trkpt lat="46.33482" lon="-0.9361">
        <ele>5</ele>
        <time>2015-11-16T09:21:50Z</time>
      </trkpt>
      <trkpt lat="46.33471" lon="-0.93589">
        <ele>5.8</ele>
        <time>2015-11-16T09:22:02Z</time>
      </trkpt>
      <trkpt lat="46.33459" lon="-0.9357">
        <ele>6.3</ele>
        <time>2015-11-16T09:22:13Z</time>
      </trkpt>
      <trkpt lat="46.33448" lon="-0.93548">
        <ele>6</ele>
        <time>2015-11-16T09:22:25Z</time>
      </trkpt>
      <trkpt lat="46.33436" lon="-0.93528">
        <ele>6.3</ele>
        <time>2015-11-16T09:22:37Z</time>
      </trkpt>
      <trkpt lat="46.33424" lon="-0.93506">
        <ele>6.7</ele>
        <time>2015-11-16T09:22:50Z</time>
      </trkpt>
      <trkpt lat="46.33411" lon="-0.93485">
        <ele>7.2</ele>
        <time>2015-11-16T09:23:01Z</time>
      </trkpt>
      <trkpt lat="46.33399" lon="-0.93464">
        <ele>7.4</ele>
        <time>2015-11-16T09:23:12Z</time>
      </trkpt>
      <trkpt lat="46.33389" lon="-0.93441">
        <ele>7</ele>
        <time>2015-11-16T09:23:24Z</time>
      </trkpt>
      <trkpt lat="46.33381" lon="-0.93417">
        <ele>7.6</ele>
        <time>2015-11-16T09:23:36Z</time>
      </trkpt>
      <trkpt lat="46.33373" lon="-0.93393">
        <ele>8.2</ele>
        <time>2015-11-16T09:23:48Z</time>
      </trkpt>
      <trkpt lat="46.33364" lon="-0.93368">
        <ele>8.8</ele>
        <time>2015-11-16T09:24:01Z</time>
      </trkpt>
      <trkpt lat="46.33357" lon="-0.93343">
        <ele>9</ele>
        <time>2015-11-16T09:24:13Z</time>
      </trkpt>
      <trkpt lat="46.33349" lon="-0.93317">
        <ele>9</ele>
        <time>2015-11-16T09:24:25Z</time>
      </trkpt>
      <trkpt lat="46.33335" lon="-0.933">
        <ele>8.8</ele>
        <time>2015-11-16T09:24:37Z</time>
      </trkpt>
      <trkpt lat="46.33316" lon="-0.93302">
        <ele>9</ele>
        <time>2015-11-16T09:24:49Z</time>
      </trkpt>
      <trkpt lat="46.33298" lon="-0.9331">
        <ele>9.3</ele>
        <time>2015-11-16T09:25:01Z</time>
      </trkpt>
      <trkpt lat="46.3328" lon="-0.93318">
        <ele>9.9</ele>
        <time>2015-11-16T09:25:13Z</time>
      </trkpt>
      <trkpt lat="46.33268" lon="-0.93338">
        <ele>10.2</ele>
        <time>2015-11-16T09:25:25Z</time>
      </trkpt>
      <trkpt lat="46.33259" lon="-0.93362">
        <ele>11</ele>
        <time>2015-11-16T09:25:37Z</time>
      </trkpt>
      <trkpt lat="46.33248" lon="-0.93383">
        <ele>11.8</ele>
        <time>2015-11-16T09:25:49Z</time>
      </trkpt>
      <trkpt lat="46.33236" lon="-0.93404">
        <ele>12.3</ele>
        <time>2015-11-16T09:26:02Z</time>
      </trkpt>
      <trkpt lat="46.33224" lon="-0.93425">
        <ele>13.2</ele>
        <time>2015-11-16T09:26:14Z</time>
      </trkpt>
      <trkpt lat="46.3321" lon="-0.93442">
        <ele>13.9</ele>
        <time>2015-11-16T09:26:26Z</time>
      </trkpt>
      <trkpt lat="46.33195" lon="-0.93459">
        <ele>14.5</ele>
        <time>2015-11-16T09:26:38Z</time>
      </trkpt>
      <trkpt lat="46.33182" lon="-0.93478">
        <ele>15.1</ele>
        <time>2015-11-16T09:26:50Z</time>
      </trkpt>
      <trkpt lat="46.3317" lon="-0.93497">
        <ele>15.8</ele>
        <time>2015-11-16T09:27:02Z</time>
      </trkpt>
      <trkpt lat="46.33158" lon="-0.93517">
        <ele>16.1</ele>
        <time>2015-11-16T09:27:14Z</time>
      </trkpt>
      <trkpt lat="46.33146" lon="-0.93537">
        <ele>17</ele>
        <time>2015-11-16T09:27:26Z</time>
      </trkpt>
      <trkpt lat="46.33134" lon="-0.93558">
        <ele>18</ele>
        <time>2015-11-16T09:27:38Z</time>
      </trkpt>
      <trkpt lat="46.33124" lon="-0.93579">
        <ele>18.5</ele>
        <time>2015-11-16T09:27:50Z</time>
      </trkpt>
      <trkpt lat="46.33115" lon="-0.93604">
        <ele>19.6</ele>
        <time>2015-11-16T09:28:03Z</time>
      </trkpt>
      <trkpt lat="46.33109" lon="-0.93629">
        <ele>20</ele>
        <time>2015-11-16T09:28:15Z</time>
      </trkpt>
      <trkpt lat="46.33107" lon="-0.93655">
        <ele>20.7</ele>
        <time>2015-11-16T09:28:27Z</time>
      </trkpt>
      <trkpt lat="46.33106" lon="-0.93683">
        <ele>21.7</ele>
        <time>2015-11-16T09:28:40Z</time>
      </trkpt>
      <trkpt lat="46.33104" lon="-0.93709">
        <ele>22.4</ele>
        <time>2015-11-16T09:28:53Z</time>
      </trkpt>
      <trkpt lat="46.33103" lon="-0.93726">
        <ele>22.7</ele>
        <time>2015-11-16T09:29:01Z</time>
      </trkpt>
      <trkpt lat="46.33101" lon="-0.93753">
        <ele>23.8</ele>
        <time>2015-11-16T09:29:15Z</time>
      </trkpt>
      <trkpt lat="46.33097" lon="-0.93779">
        <ele>25.1</ele>
        <time>2015-11-16T09:29:28Z</time>
      </trkpt>
      <trkpt lat="46.33091" lon="-0.93805">
        <ele>26</ele>
        <time>2015-11-16T09:29:41Z</time>
      </trkpt>
      <trkpt lat="46.33087" lon="-0.9383">
        <ele>26.8</ele>
        <time>2015-11-16T09:29:54Z</time>
      </trkpt>
      <trkpt lat="46.33082" lon="-0.93857">
        <ele>27</ele>
        <time>2015-11-16T09:30:07Z</time>
      </trkpt>
      <trkpt lat="46.33076" lon="-0.93884">
        <ele>27</ele>
        <time>2015-11-16T09:30:20Z</time>
      </trkpt>
      <trkpt lat="46.3307" lon="-0.9391">
        <ele>27.4</ele>
        <time>2015-11-16T09:30:32Z</time>
      </trkpt>
      <trkpt lat="46.33066" lon="-0.93935">
        <ele>27.9</ele>
        <time>2015-11-16T09:30:44Z</time>
      </trkpt>
      <trkpt lat="46.33062" lon="-0.93961">
        <ele>28</ele>
        <time>2015-11-16T09:30:56Z</time>
      </trkpt>
      <trkpt lat="46.33059" lon="-0.93989">
        <ele>28</ele>
        <time>2015-11-16T09:31:09Z</time>
      </trkpt>
      <trkpt lat="46.33059" lon="-0.9399">
        <ele>28</ele>
        <time>2015-11-16T09:31:11Z</time>
      </trkpt>
      <trkpt lat="46.33059" lon="-0.94016">
        <ele>28</ele>
        <time>2015-11-16T09:31:25Z</time>
      </trkpt>
      <trkpt lat="46.33058" lon="-0.94042">
        <ele>27.9</ele>
        <time>2015-11-16T09:31:38Z</time>
      </trkpt>
      <trkpt lat="46.33061" lon="-0.9407">
        <ele>27.4</ele>
        <time>2015-11-16T09:31:52Z</time>
      </trkpt>
      <trkpt lat="46.33064" lon="-0.94096">
        <ele>27</ele>
        <time>2015-11-16T09:32:05Z</time>
      </trkpt>
      <trkpt lat="46.33068" lon="-0.94123">
        <ele>27</ele>
        <time>2015-11-16T09:32:18Z</time>
      </trkpt>
      <trkpt lat="46.33071" lon="-0.94142">
        <ele>27</ele>
        <time>2015-11-16T09:32:27Z</time>
      </trkpt>
      <trkpt lat="46.33075" lon="-0.94169">
        <ele>27</ele>
        <time>2015-11-16T09:32:40Z</time>
      </trkpt>
      <trkpt lat="46.33079" lon="-0.94195">
        <ele>27</ele>
        <time>2015-11-16T09:32:54Z</time>
      </trkpt>
      <trkpt lat="46.33083" lon="-0.94222">
        <ele>27</ele>
        <time>2015-11-16T09:33:08Z</time>
      </trkpt>
      <trkpt lat="46.33087" lon="-0.94248">
        <ele>26.9</ele>
        <time>2015-11-16T09:33:21Z</time>
      </trkpt>
      <trkpt lat="46.33089" lon="-0.94268">
        <ele>26.9</ele>
        <time>2015-11-16T09:33:31Z</time>
      </trkpt>
      <trkpt lat="46.33089" lon="-0.94295">
        <ele>27</ele>
        <time>2015-11-16T09:33:45Z</time>
      </trkpt>
      <trkpt lat="46.33089" lon="-0.94322">
        <ele>27</ele>
        <time>2015-11-16T09:33:59Z</time>
      </trkpt>
      <trkpt lat="46.33088" lon="-0.94345">
        <ele>27</ele>
        <time>2015-11-16T09:34:59Z</time>
      </trkpt>
      <trkpt lat="46.33086" lon="-0.94354">
        <ele>27</ele>
        <time>2015-11-16T09:35:47Z</time>
      </trkpt>
    </trkseg>
  </trk>
</gpx>